Time;durP1;ratioP1;P1;durP2;ratioP2;P2;SDS_P1;SDS_P2;PMS_P1;PMS_P2;Temp;Humidity;BMP_temperature;BMP_pressure;BME280_temperature;BME280_humidity;BME280_pressure;Samples;Min_cycle;Max_cycle;Signal;HPM_P1;HPM_P2
2022/10/14 00:01:54;;;;;;;15.75;6.90;;;13.40;85.20;;;;;;5009421;28;20523;-67
2022/10/14 00:04:20;;;;;;;42.17;7.25;;;13.30;85.10;;;;;;5009711;28;20030;-67
2022/10/14 00:06:45;;;;;;;19.02;6.35;;;13.40;84.90;;;;;;5009432;28;20029;-68
2022/10/14 00:09:11;;;;;;;45.90;7.85;;;13.30;84.80;;;;;;5006002;28;20623;-67
2022/10/14 00:11:37;;;;;;;67.45;7.53;;;13.30;84.80;;;;;;5008640;28;20025;-67
2022/10/14 00:14:10;;;;;;;51.35;7.38;;;13.20;85.50;;;;;;5009626;28;20469;-67
2022/10/14 00:16:38;;;;;;;22.33;6.15;;;13.10;84.90;;;;;;5008961;28;20025;-68
2022/10/14 00:19:06;;;;;;;32.25;5.63;;;13.10;85.10;;;;;;5008161;28;20029;-68
2022/10/14 00:21:33;;;;;;;52.72;7.03;;;13.10;85.10;;;;;;4996343;28;20084;-68
2022/10/14 00:23:58;;;;;;;34.50;6.50;;;13.10;85.10;;;;;;5005612;28;20556;-69
2022/10/14 00:26:27;;;;;;;29.67;6.25;;;13.10;85.10;;;;;;4994457;28;20045;-68
2022/10/14 00:28:53;;;;;;;63.03;7.85;;;13.10;85.10;;;;;;5010027;28;20053;-68
2022/10/14 00:31:19;;;;;;;55.90;7.30;;;13.00;85.10;;;;;;5001014;28;20029;-67
2022/10/14 00:33:45;;;;;;;44.55;8.38;;;13.10;85.10;;;;;;5001825;28;20104;-67
2022/10/14 00:36:13;;;;;;;36.40;7.18;;;13.00;85.10;;;;;;5010081;28;20029;-67
2022/10/14 00:38:39;;;;;;;71.72;9.63;;;13.00;85.30;;;;;;5009931;28;20048;-68
2022/10/14 00:41:05;;;;;;;49.03;7.55;;;13.00;85.30;;;;;;4997609;28;20729;-67
2022/10/14 00:43:56;;;;;;;42.80;8.00;;;13.00;85.50;;;;;;5009587;28;20022;-67
2022/10/14 00:46:24;;;;;;;26.35;7.47;;;13.00;85.50;;;;;;5009774;28;20488;-66
2022/10/14 00:48:50;;;;;;;32.78;8.63;;;13.00;85.50;;;;;;5009268;28;20080;-67
2022/10/14 00:51:16;;;;;;;36.05;7.78;;;13.00;85.50;;;;;;5009464;28;20100;-67
2022/10/14 00:53:43;;;;;;;43.97;9.93;;;13.00;85.80;;;;;;5011235;28;20399;-67
2022/10/14 00:56:09;;;;;;;40.35;8.35;;;13.00;85.80;;;;;;5012944;28;20029;-67
2022/10/14 00:58:36;;;;;;;62.05;8.93;;;13.00;86.00;;;;;;5012872;28;20026;-67
2022/10/14 01:01:01;;;;;;;30.95;8.20;;;13.00;86.00;;;;;;5012703;28;20022;-68
2022/10/14 01:03:27;;;;;;;21.92;7.40;;;12.90;86.00;;;;;;5012935;28;20084;-68
2022/10/14 01:06:10;;;;;;;46.17;9.57;;;13.00;85.90;;;;;;5011447;28;20037;-67
2022/10/14 01:08:45;;;;;;;38.25;8.85;;;12.90;85.90;;;;;;5012973;28;20036;-67
2022/10/14 01:11:23;;;;;;;94.03;10.00;;;12.80;86.20;;;;;;5010888;28;20064;-66
2022/10/14 01:14:10;;;;;;;54.10;8.82;;;12.80;86.30;;;;;;5004266;28;20030;-68
2022/10/14 01:16:56;;;;;;;62.78;8.50;;;12.80;86.40;;;;;;5012265;28;20504;-68
2022/10/14 01:20:07;;;;;;;78.10;9.32;;;12.80;86.50;;;;;;5012514;28;20042;-68
2022/10/14 01:22:39;;;;;;;41.60;7.55;;;12.70;86.70;;;;;;5009033;28;20474;-68
2022/10/14 01:25:55;;;;;;;25.02;6.55;;;12.70;86.80;;;;;;5011961;28;20094;-67
2022/10/14 01:28:29;;;;;;;42.25;7.95;;;12.70;86.80;;;;;;4996942;28;20034;-68
2022/10/14 01:31:08;;;;;;;45.13;8.60;;;12.70;86.80;;;;;;5009538;28;20030;-67
2022/10/14 01:33:39;;;;;;;26.35;6.85;;;12.70;86.80;;;;;;5019138;28;20052;-68
2022/10/14 01:36:17;;;;;;;61.75;9.88;;;12.80;86.80;;;;;;4999639;28;20029;-68
2022/10/14 01:38:54;;;;;;;54.20;7.45;;;12.70;86.80;;;;;;5012047;28;20030;-68
2022/10/14 01:41:25;;;;;;;46.63;8.07;;;12.70;87.20;;;;;;5000932;28;20044;-67
2022/10/14 01:43:54;;;;;;;44.13;6.30;;;12.70;87.20;;;;;;5011473;28;20113;-67
2022/10/14 01:46:22;;;;;;;37.08;7.43;;;12.70;87.10;;;;;;5009262;28;20023;-66
2022/10/14 01:48:52;;;;;;;29.35;8.30;;;12.60;87.30;;;;;;5004438;28;20049;-67
2022/10/14 01:51:23;;;;;;;31.00;7.70;;;12.50;87.50;;;;;;5010167;28;20037;-67
2022/10/14 01:53:55;;;;;;;31.85;6.70;;;12.50;87.80;;;;;;5011651;28;20034;-68
2022/10/14 01:56:21;;;;;;;31.65;7.95;;;12.60;88.00;;;;;;5009608;28;20033;-67
2022/10/14 01:58:48;;;;;;;62.67;7.63;;;12.60;87.90;;;;;;5011891;28;20033;-67
2022/10/14 02:01:13;;;;;;;32.80;8.02;;;12.60;87.80;;;;;;5010883;28;20053;-67
2022/10/14 02:03:44;;;;;;;22.85;8.30;;;12.60;87.80;;;;;;5010898;28;20504;-68
2022/10/14 02:06:33;;;;;;;30.67;7.20;;;12.60;88.00;;;;;;5011609;28;20025;-67
2022/10/14 02:09:21;;;;;;;21.02;7.60;;;12.70;87.90;;;;;;5002412;28;20026;-68
2022/10/14 02:11:55;;;;;;;21.20;7.00;;;12.70;87.90;;;;;;5011296;28;20022;-68
2022/10/14 02:14:48;;;;;;;22.95;7.18;;;12.80;87.80;;;;;;5009930;28;20030;-67
2022/10/14 02:17:23;;;;;;;27.13;7.78;;;12.90;87.70;;;;;;5011747;28;20021;-67
2022/10/14 02:20:03;;;;;;;47.15;7.60;;;13.00;87.40;;;;;;5012036;28;20489;-67
2022/10/14 02:22:38;;;;;;;30.02;7.45;;;13.00;87.20;;;;;;5012464;28;20022;-66
2022/10/14 02:25:16;;;;;;;51.20;9.95;;;12.90;87.20;;;;;;5011601;28;20018;-67
2022/10/14 02:27:44;;;;;;;17.45;7.97;;;12.90;87.20;;;;;;5012028;28;20104;-66
2022/10/14 02:30:11;;;;;;;35.53;8.35;;;12.80;87.50;;;;;;5011901;28;20388;-66
2022/10/14 02:32:38;;;;;;;36.55;9.05;;;12.90;87.60;;;;;;5011998;28;20121;-66
2022/10/14 02:35:06;;;;;;;27.80;9.00;;;12.90;87.60;;;;;;5011166;28;20087;-68
2022/10/14 02:37:32;;;;;;;23.08;8.48;;;12.90;87.50;;;;;;5010566;28;20061;-67
2022/10/14 02:40:19;;;;;;;18.10;7.72;;;13.00;87.40;;;;;;5009471;28;20033;-67
2022/10/14 02:42:45;;;;;;;16.60;8.73;;;13.00;87.30;;;;;;4997925;28;20531;-68
2022/10/14 02:45:13;;;;;;;18.95;8.95;;;13.00;87.30;;;;;;5011797;28;20106;-68
2022/10/14 02:47:38;;;;;;;15.95;9.45;;;13.00;87.20;;;;;;5012197;28;20117;-69
2022/10/14 02:50:04;;;;;;;17.55;9.55;;;13.10;87.20;;;;;;5002696;28;20109;-68
2022/10/14 02:52:30;;;;;;;14.35;9.02;;;13.10;87.10;;;;;;5011751;28;20036;-67
2022/10/14 02:54:55;;;;;;;19.70;8.93;;;13.10;87.10;;;;;;5010219;28;20104;-67
2022/10/14 02:57:21;;;;;;;12.32;8.50;;;13.10;87.00;;;;;;5011964;28;20084;-68
2022/10/14 02:59:46;;;;;;;16.23;9.93;;;13.20;87.00;;;;;;5011099;28;20088;-68
2022/10/14 03:02:12;;;;;;;22.65;8.55;;;13.10;86.90;;;;;;5011427;28;20030;-68
2022/10/14 03:04:37;;;;;;;27.30;9.70;;;13.10;86.70;;;;;;5009915;28;20026;-68
2022/10/14 03:07:03;;;;;;;58.25;11.00;;;13.00;86.90;;;;;;5009985;28;20037;-68
2022/10/14 03:09:29;;;;;;;26.92;11.20;;;12.90;87.00;;;;;;5010688;28;20088;-66
2022/10/14 03:11:54;;;;;;;25.55;10.77;;;12.90;87.20;;;;;;5011206;28;20022;-68
2022/10/14 03:14:20;;;;;;;51.90;11.18;;;12.90;87.40;;;;;;5010338;28;20018;-68
2022/10/14 03:16:45;;;;;;;24.08;11.95;;;12.90;87.30;;;;;;5010454;28;20092;-68
2022/10/14 03:19:11;;;;;;;22.47;10.17;;;12.80;87.40;;;;;;4997577;28;20096;-67
2022/10/14 03:21:36;;;;;;;37.88;11.25;;;12.80;87.60;;;;;;5010602;28;20074;-68
2022/10/14 03:24:02;;;;;;;23.83;10.50;;;12.90;87.60;;;;;;5009369;28;20022;-67
2022/10/14 03:26:28;;;;;;;31.42;12.70;;;12.80;87.50;;;;;;5009708;28;20488;-67
2022/10/14 03:28:53;;;;;;;21.85;9.32;;;12.80;87.60;;;;;;4996293;28;20675;-66
2022/10/14 03:31:19;;;;;;;37.08;11.55;;;12.80;87.90;;;;;;5010734;28;20030;-68
2022/10/14 03:33:44;;;;;;;28.33;12.38;;;12.70;88.00;;;;;;5009918;28;20018;-68
2022/10/14 03:36:11;;;;;;;27.48;11.30;;;12.70;88.60;;;;;;5007049;28;20041;-67
2022/10/14 03:38:36;;;;;;;18.27;9.38;;;12.70;88.30;;;;;;5011335;28;20334;-68
2022/10/14 03:41:02;;;;;;;32.40;10.57;;;12.70;88.30;;;;;;5009437;28;20036;-68
2022/10/14 03:43:28;;;;;;;60.15;13.38;;;12.70;88.20;;;;;;5000918;28;20456;-68
2022/10/14 03:45:54;;;;;;;31.42;10.63;;;12.70;88.20;;;;;;5011099;28;20416;-68
2022/10/14 03:48:19;;;;;;;36.13;10.05;;;12.70;88.30;;;;;;5010456;28;20029;-69
2022/10/14 03:50:48;;;;;;;37.78;12.43;;;12.70;88.50;;;;;;5010393;28;20029;-68
2022/10/14 03:53:14;;;;;;;31.65;10.68;;;12.60;88.50;;;;;;5010060;28;20034;-68
2022/10/14 03:55:40;;;;;;;25.25;11.43;;;12.70;88.70;;;;;;5009919;28;20030;-68
2022/10/14 03:58:05;;;;;;;34.28;12.70;;;12.70;88.60;;;;;;5009169;28;20024;-68
2022/10/14 04:00:32;;;;;;;36.78;12.40;;;12.80;88.60;;;;;;5009584;28;20353;-67
2022/10/14 04:02:57;;;;;;;35.40;11.68;;;12.70;88.50;;;;;;5010550;28;20026;-67
2022/10/14 04:05:23;;;;;;;38.38;10.55;;;12.80;88.60;;;;;;5010519;28;20033;-67
2022/10/14 04:07:48;;;;;;;54.15;10.63;;;12.80;88.60;;;;;;5010299;28;20562;-67
2022/10/14 04:10:14;;;;;;;31.70;13.38;;;12.80;88.50;;;;;;5011302;28;20030;-67
2022/10/14 04:12:39;;;;;;;29.73;12.00;;;12.80;88.70;;;;;;5008014;28;20034;-67
2022/10/14 04:15:08;;;;;;;24.63;12.13;;;12.80;88.80;;;;;;5010391;28;20029;-68
2022/10/14 04:17:34;;;;;;;42.58;12.85;;;12.80;88.70;;;;;;5009046;28;20505;-67
2022/10/14 04:20:00;;;;;;;36.05;13.00;;;12.70;88.80;;;;;;5009550;28;20042;-68
2022/10/14 04:22:25;;;;;;;35.28;12.32;;;12.70;88.90;;;;;;5006403;28;20046;-69
2022/10/14 04:24:51;;;;;;;26.58;11.90;;;12.70;89.10;;;;;;5007714;28;20053;-68
2022/10/14 04:27:17;;;;;;;24.02;9.82;;;12.80;89.20;;;;;;5007410;28;20093;-67
2022/10/14 04:29:43;;;;;;;37.63;11.18;;;12.80;89.00;;;;;;5009969;28;20030;-67
2022/10/14 04:32:09;;;;;;;23.92;10.30;;;12.70;89.10;;;;;;5009308;28;20029;-67
2022/10/14 04:34:34;;;;;;;21.80;10.75;;;12.80;89.10;;;;;;5017347;28;20109;-67
2022/10/14 04:37:00;;;;;;;20.33;10.60;;;12.80;89.00;;;;;;5011425;28;20030;-68
2022/10/14 04:39:25;;;;;;;45.00;14.55;;;12.90;88.90;;;;;;5008400;28;20042;-68
2022/10/14 04:41:51;;;;;;;50.67;12.85;;;12.90;88.90;;;;;;5010391;28;20476;-68
2022/10/14 04:44:16;;;;;;;26.13;10.63;;;12.80;88.90;;;;;;5009801;28;20538;-67
2022/10/14 04:46:42;;;;;;;41.85;12.60;;;12.80;89.00;;;;;;5009871;28;20029;-68
2022/10/14 04:49:11;;;;;;;33.13;12.68;;;12.90;89.00;;;;;;5011223;28;20026;-70
2022/10/14 04:51:37;;;;;;;34.38;10.10;;;12.90;89.10;;;;;;5009983;28;20052;-69
2022/10/14 04:54:03;;;;;;;47.50;13.98;;;13.00;89.00;;;;;;5009736;28;20022;-68
2022/10/14 04:56:28;;;;;;;31.45;12.68;;;13.00;89.00;;;;;;5009918;28;20092;-69
2022/10/14 04:58:54;;;;;;;29.95;10.70;;;13.00;88.90;;;;;;5010806;28;20445;-70
2022/10/14 05:01:19;;;;;;;28.48;11.30;;;13.00;89.00;;;;;;5010257;28;20037;-72
2022/10/14 05:03:45;;;;;;;54.47;14.90;;;13.10;88.90;;;;;;5007347;28;20025;-66
2022/10/14 05:06:10;;;;;;;40.58;14.77;;;13.10;88.80;;;;;;4999420;28;20081;-70
2022/10/14 05:08:36;;;;;;;33.92;14.07;;;13.00;88.90;;;;;;5007081;28;20029;-70
2022/10/14 05:11:02;;;;;;;68.78;14.43;;;13.00;89.20;;;;;;5011333;28;20036;-70
2022/10/14 05:13:29;;;;;;;23.23;12.02;;;13.00;89.30;;;;;;5008463;28;20048;-69
2022/10/14 05:15:55;;;;;;;69.05;13.32;;;13.00;89.50;;;;;;5008908;28;20105;-70
2022/10/14 05:18:20;;;;;;;36.45;13.88;;;13.00;89.50;;;;;;5011131;28;20034;-69
2022/10/14 05:20:46;;;;;;;56.72;13.43;;;13.00;89.50;;;;;;5010235;28;20033;-69
2022/10/14 05:23:12;;;;;;;46.30;11.82;;;13.00;89.50;;;;;;5011271;28;20034;-69
2022/10/14 05:25:38;;;;;;;42.05;12.02;;;13.10;89.60;;;;;;5011230;28;20427;-68
2022/10/14 05:28:03;;;;;;;37.67;12.82;;;13.10;89.40;;;;;;5001556;28;20048;-67
2022/10/14 05:30:29;;;;;;;43.47;15.70;;;13.10;89.50;;;;;;5005768;28;20029;-67
2022/10/14 05:32:55;;;;;;;79.30;16.25;;;13.00;90.00;;;;;;5005018;28;20105;-67
2022/10/14 05:35:20;;;;;;;28.08;16.15;;;13.10;89.70;;;;;;5007751;28;20109;-67
2022/10/14 05:37:46;;;;;;;37.13;14.70;;;13.00;89.80;;;;;;5006044;28;20504;-63
2022/10/14 05:40:12;;;;;;;48.63;15.25;;;13.00;90.00;;;;;;5009304;28;20034;-65
2022/10/14 05:42:37;;;;;;;42.80;14.23;;;13.00;90.00;;;;;;5007604;28;20014;-67
2022/10/14 05:45:04;;;;;;;40.42;14.13;;;13.00;90.10;;;;;;5012228;28;20025;-68
2022/10/14 05:47:29;;;;;;;37.00;14.15;;;12.90;90.10;;;;;;5011918;28;20026;-66
2022/10/14 05:49:55;;;;;;;74.65;14.88;;;12.90;90.20;;;;;;5010560;28;20510;-68
2022/10/14 05:52:20;;;;;;;31.83;12.82;;;12.90;90.20;;;;;;5011194;28;20029;-68
2022/10/14 05:54:46;;;;;;;56.30;13.80;;;13.00;90.30;;;;;;5012386;28;20108;-68
2022/10/14 05:57:12;;;;;;;39.67;11.38;;;13.00;90.30;;;;;;5012793;28;20156;-66
2022/10/14 05:59:37;;;;;;;50.30;13.20;;;13.10;90.30;;;;;;5011649;28;20516;-67
2022/10/14 06:02:03;;;;;;;57.47;12.55;;;13.10;90.20;;;;;;5010882;28;20025;-68
2022/10/14 06:04:28;;;;;;;43.40;14.13;;;13.10;90.20;;;;;;5008921;28;20029;-66
2022/10/14 06:06:54;;;;;;;34.42;10.88;;;13.10;90.20;;;;;;5009299;28;20029;-68
2022/10/14 06:09:19;;;;;;;24.25;12.77;;;13.20;90.20;;;;;;5008445;28;20029;-66
2022/10/14 06:11:45;;;;;;;26.17;12.68;;;13.20;90.20;;;;;;5011817;28;20076;-67
2022/10/14 06:14:11;;;;;;;20.35;10.25;;;13.20;90.20;;;;;;5002789;28;20037;-65
2022/10/14 06:16:37;;;;;;;17.58;10.75;;;13.30;90.20;;;;;;5001195;28;20507;-68
2022/10/14 06:19:02;;;;;;;17.17;10.40;;;13.30;90.10;;;;;;5006501;28;20045;-67
2022/10/14 06:21:28;;;;;;;23.85;12.52;;;13.40;90.10;;;;;;5007532;28;20080;-67
2022/10/14 06:23:53;;;;;;;14.18;9.32;;;13.40;90.10;;;;;;5007459;28;20041;-67
2022/10/14 06:26:19;;;;;;;16.45;11.85;;;13.40;90.20;;;;;;5003501;28;20026;-67
2022/10/14 06:28:45;;;;;;;12.30;7.85;;;13.40;90.30;;;;;;5009010;28;20038;-68
2022/10/14 06:31:11;;;;;;;13.52;8.70;;;13.40;90.20;;;;;;5007656;28;20413;-66
2022/10/14 06:33:36;;;;;;;23.88;9.90;;;13.40;90.20;;;;;;5004862;28;20034;-69
2022/10/14 06:36:04;;;;;;;20.27;10.57;;;13.40;90.20;;;;;;5012170;28;20026;-68
2022/10/14 06:38:29;;;;;;;16.25;10.63;;;13.50;90.20;;;;;;5011618;28;20453;-67
2022/10/14 06:40:55;;;;;;;50.72;11.23;;;13.40;90.20;;;;;;5001000;28;20117;-67
2022/10/14 06:43:21;;;;;;;33.00;10.80;;;13.50;90.30;;;;;;4999277;28;20025;-68
2022/10/14 06:45:47;;;;;;;20.38;12.95;;;13.50;90.30;;;;;;5009821;28;20033;-68
2022/10/14 06:48:13;;;;;;;25.95;14.23;;;13.50;90.30;;;;;;5023155;28;20021;-69
2022/10/14 06:50:39;;;;;;;26.00;14.18;;;13.50;90.40;;;;;;5013309;28;20042;-69
2022/10/14 06:53:05;;;;;;;20.02;12.05;;;13.50;90.50;;;;;;5009587;28;20036;-68
2022/10/14 06:55:31;;;;;;;20.23;13.38;;;13.60;90.50;;;;;;5007240;28;20033;-68
2022/10/14 06:57:57;;;;;;;24.00;14.55;;;13.60;90.50;;;;;;5009012;28;20030;-68
2022/10/14 07:00:22;;;;;;;31.58;12.68;;;13.60;90.80;;;;;;5015610;28;20034;-67
2022/10/14 07:02:48;;;;;;;19.02;11.05;;;13.70;90.50;;;;;;5010138;28;20072;-67
2022/10/14 07:05:14;;;;;;;21.08;10.65;;;13.70;90.50;;;;;;5006633;28;20026;-69
2022/10/14 07:07:39;;;;;;;19.88;12.65;;;13.80;90.50;;;;;;5010379;28;20030;-68
2022/10/14 07:10:05;;;;;;;15.27;11.35;;;13.80;90.50;;;;;;5002863;28;20117;-67
2022/10/14 07:12:31;;;;;;;22.92;14.55;;;13.90;90.50;;;;;;5009589;28;20030;-68
2022/10/14 07:14:57;;;;;;;17.52;11.15;;;13.90;90.70;;;;;;5000805;28;20041;-68
2022/10/14 07:17:22;;;;;;;13.70;10.32;;;13.90;90.70;;;;;;5005956;28;20034;-68
2022/10/14 07:19:48;;;;;;;15.82;12.45;;;13.90;90.70;;;;;;5006441;28;20095;-68
2022/10/14 07:22:15;;;;;;;22.38;13.52;;;13.90;90.80;;;;;;5008961;28;20033;-69
2022/10/14 07:24:40;;;;;;;18.55;13.38;;;13.90;90.90;;;;;;5003240;28;20018;-69
2022/10/14 07:27:08;;;;;;;14.45;10.35;;;14.00;91.00;;;;;;5008933;28;20072;-69
2022/10/14 07:29:34;;;;;;;20.20;14.18;;;14.00;91.00;;;;;;5006793;28;20516;-70
2022/10/14 07:31:59;;;;;;;14.68;10.25;;;14.00;91.00;;;;;;5005617;28;20033;-69
2022/10/14 07:34:26;;;;;;;12.85;8.85;;;14.10;91.00;;;;;;5003726;28;20022;-70
2022/10/14 07:36:51;;;;;;;16.75;12.77;;;14.20;91.30;;;;;;5006962;28;20157;-67
2022/10/14 07:39:17;;;;;;;13.57;9.40;;;14.10;91.00;;;;;;5007920;28;20100;-66
2022/10/14 07:41:43;;;;;;;13.13;9.88;;;14.20;91.10;;;;;;5006994;28;20055;-68
2022/10/14 07:44:12;;;;;;;13.05;10.43;;;14.30;91.10;;;;;;5005206;28;20385;-67
2022/10/14 07:46:40;;;;;;;12.73;9.82;;;14.30;91.00;;;;;;5008480;28;20048;-68
2022/10/14 07:49:09;;;;;;;12.40;9.95;;;14.20;91.10;;;;;;5005853;28;20037;-69
2022/10/14 07:51:35;;;;;;;11.55;9.05;;;14.30;91.20;;;;;;5005879;28;20412;-68
2022/10/14 07:54:03;;;;;;;13.60;10.02;;;14.30;91.10;;;;;;5006040;28;20026;-68
2022/10/14 07:56:29;;;;;;;12.25;9.73;;;14.40;91.20;;;;;;5008446;28;20106;-69
2022/10/14 07:58:55;;;;;;;12.80;9.68;;;14.40;91.20;;;;;;5008051;28;20496;-67
2022/10/14 08:01:20;;;;;;;19.88;11.10;;;14.40;91.20;;;;;;4998268;28;20034;-68
2022/10/14 08:03:47;;;;;;;13.05;9.32;;;14.40;91.30;;;;;;5006516;28;20026;-69
2022/10/14 08:06:13;;;;;;;10.88;8.70;;;14.40;91.40;;;;;;5005937;28;20029;-68
2022/10/14 08:08:40;;;;;;;10.55;8.98;;;14.40;91.50;;;;;;5007809;28;20714;-68
2022/10/14 08:11:10;;;;;;;13.13;9.77;;;14.40;91.50;;;;;;5005499;28;20396;-68
2022/10/14 08:13:36;;;;;;;11.65;8.70;;;14.40;91.50;;;;;;5005149;28;20500;-69
2022/10/14 08:16:02;;;;;;;11.60;9.10;;;14.40;91.60;;;;;;5002421;28;20116;-68
2022/10/14 08:18:28;;;;;;;8.65;7.03;;;14.40;91.60;;;;;;5003657;28;20022;-69
2022/10/14 08:20:54;;;;;;;9.40;7.82;;;14.50;91.60;;;;;;5003208;28;20488;-68
2022/10/14 08:23:20;;;;;;;8.98;7.70;;;14.50;91.50;;;;;;5005360;28;20026;-67
2022/10/14 08:25:48;;;;;;;10.38;8.45;;;14.50;91.50;;;;;;5003165;28;20033;-67
2022/10/14 08:28:14;;;;;;;8.95;7.53;;;14.60;91.60;;;;;;4999270;28;20037;-68
2022/10/14 08:30:40;;;;;;;8.73;7.18;;;14.60;91.60;;;;;;5004998;28;20041;-68
2022/10/14 08:33:05;;;;;;;8.98;7.25;;;14.60;91.60;;;;;;5001943;28;20030;-67
2022/10/14 08:35:31;;;;;;;8.07;6.75;;;14.60;91.50;;;;;;5000725;28;20034;-68
2022/10/14 08:38:00;;;;;;;6.43;5.72;;;14.70;91.60;;;;;;4999229;28;20030;-67
2022/10/14 08:40:37;;;;;;;7.13;6.32;;;14.70;91.50;;;;;;5004154;28;20062;-68
2022/10/14 08:43:15;;;;;;;9.18;8.18;;;14.70;91.50;;;;;;5002022;28;20022;-66
2022/10/14 08:45:48;;;;;;;9.40;8.02;;;14.70;91.50;;;;;;5001730;28;20489;-68
2022/10/14 08:48:18;;;;;;;8.43;7.53;;;14.80;91.50;;;;;;4999980;28;20033;-67
2022/10/14 08:50:49;;;;;;;11.30;9.38;;;14.80;91.50;;;;;;5002127;28;20030;-67
2022/10/14 08:53:19;;;;;;;9.13;7.80;;;14.80;91.50;;;;;;5003553;28;20401;-68
2022/10/14 08:55:51;;;;;;;9.20;8.23;;;14.80;91.50;;;;;;5003945;28;20041;-68
2022/10/14 08:58:30;;;;;;;7.38;6.63;;;14.90;91.50;;;;;;5004190;28;20503;-67
2022/10/14 09:00:57;;;;;;;6.63;5.85;;;14.90;91.50;;;;;;5004964;28;20112;-68
2022/10/14 09:03:31;;;;;;;6.85;5.82;;;15.00;91.40;;;;;;5005372;28;20507;-68
2022/10/14 09:06:01;;;;;;;5.57;4.97;;;15.00;91.40;;;;;;5025618;28;20505;-69
2022/10/14 09:08:32;;;;;;;5.35;4.82;;;15.10;91.30;;;;;;5008247;28;20502;-68
2022/10/14 09:10:58;;;;;;;6.28;5.57;;;15.10;91.20;;;;;;5008048;28;20496;-67
2022/10/14 09:13:35;;;;;;;5.82;5.22;;;15.20;91.10;;;;;;5009490;28;20037;-68
2022/10/14 09:16:18;;;;;;;5.65;5.05;;;15.20;91.10;;;;;;5006879;28;20101;-68
2022/10/14 09:18:52;;;;;;;6.72;6.00;;;15.20;91.10;;;;;;5010732;28;20057;-70
2022/10/14 09:21:38;;;;;;;6.20;5.60;;;15.20;91.00;;;;;;5010413;28;20066;-69
2022/10/14 09:24:12;;;;;;;5.63;5.03;;;15.30;91.10;;;;;;5009354;28;20029;-69
2022/10/14 09:26:41;;;;;;;6.85;6.15;;;15.20;91.10;;;;;;5009702;28;20022;-69
2022/10/14 09:29:29;;;;;;;6.80;5.50;;;15.20;91.10;;;;;;5010971;28;20032;-69
2022/10/14 09:32:11;;;;;;;6.38;5.15;;;15.30;91.00;;;;;;5004789;28;20042;-68
2022/10/14 09:34:44;;;;;;;7.68;6.88;;;15.30;91.10;;;;;;5002763;28;20019;-69
2022/10/14 09:37:29;;;;;;;4.65;4.22;;;15.20;91.10;;;;;;5004203;28;20484;-69
2022/10/14 09:40:18;;;;;;;7.63;5.93;;;15.30;91.10;;;;;;5001686;28;20074;-67
2022/10/14 09:42:46;;;;;;;4.72;4.22;;;15.30;91.10;;;;;;5005221;28;20061;-66
2022/10/14 09:45:14;;;;;;;9.70;8.00;;;15.30;91.00;;;;;;5007019;28;20044;-67
2022/10/14 09:47:55;;;;;;;5.90;5.30;;;15.30;91.10;;;;;;5010148;28;20014;-67
2022/10/14 09:50:24;;;;;;;7.10;6.40;;;15.30;91.20;;;;;;5008870;28;20037;-68
2022/10/14 09:53:14;;;;;;;6.95;6.25;;;15.30;91.20;;;;;;5009317;28;20030;-67
2022/10/14 09:55:57;;;;;;;5.78;5.18;;;15.30;91.20;;;;;;5009163;28;20030;-68
2022/10/14 09:58:44;;;;;;;6.53;5.82;;;15.40;91.20;;;;;;5005193;28;20034;-68
2022/10/14 10:01:19;;;;;;;9.98;8.93;;;15.40;91.10;;;;;;5007480;28;20022;-66
2022/10/14 10:03:46;;;;;;;10.88;7.85;;;15.40;91.20;;;;;;5003308;28;20044;-67
2022/10/14 10:06:15;;;;;;;9.15;6.60;;;15.40;91.30;;;;;;5008950;28;20538;-68
2022/10/14 10:08:58;;;;;;;9.32;6.85;;;15.40;91.30;;;;;;5009154;28;20080;-67
2022/10/14 10:11:29;;;;;;;7.40;6.65;;;15.50;91.30;;;;;;5008497;28;20049;-68
2022/10/14 10:13:55;;;;;;;6.18;5.57;;;15.50;91.30;;;;;;5009683;28;20034;-68
2022/10/14 10:16:22;;;;;;;6.95;6.25;;;15.50;91.20;;;;;;5009709;28;20048;-67
2022/10/14 10:18:50;;;;;;;5.35;4.85;;;15.60;91.20;;;;;;5010163;28;20129;-68
2022/10/14 10:21:23;;;;;;;5.93;5.10;;;15.60;91.20;;;;;;5011093;28;20393;-67
2022/10/14 10:23:52;;;;;;;6.78;6.07;;;15.70;91.10;;;;;;5010468;28;20034;-67
2022/10/14 10:26:46;;;;;;;6.97;6.28;;;15.70;91.10;;;;;;5007185;28;20053;-68
2022/10/14 10:29:24;;;;;;;10.10;8.93;;;15.70;91.10;;;;;;4992337;28;20065;-67
2022/10/14 10:32:10;;;;;;;6.93;6.22;;;15.60;91.10;;;;;;5009512;28;20037;-67
2022/10/14 10:34:56;;;;;;;10.25;9.25;;;15.60;91.30;;;;;;5005065;28;20033;-68
2022/10/14 10:37:45;;;;;;;5.60;5.03;;;15.60;91.20;;;;;;5006588;28;20089;-66
2022/10/14 10:40:33;;;;;;;9.38;8.15;;;15.70;91.20;;;;;;5008300;28;20036;-67
2022/10/14 10:43:48;;;;;;;6.70;6.00;;;15.80;91.10;;;;;;5007066;28;20018;-68
2022/10/14 10:46:43;;;;;;;7.50;6.70;;;15.80;91.10;;;;;;5008241;28;20050;-67
2022/10/14 10:49:46;;;;;;;7.07;6.38;;;15.80;91.10;;;;;;5010473;28;20021;-68
2022/10/14 10:52:31;;;;;;;6.45;5.85;;;15.80;91.10;;;;;;5007433;28;20032;-67
2022/10/14 10:55:15;;;;;;;5.57;5.00;;;15.90;91.10;;;;;;5009268;28;20065;-68
2022/10/14 10:57:47;;;;;;;6.07;5.47;;;16.00;91.00;;;;;;5010296;28;20026;-68
2022/10/14 11:00:16;;;;;;;7.28;6.57;;;16.00;90.90;;;;;;5008469;28;20026;-67
2022/10/14 11:02:59;;;;;;;8.00;7.00;;;16.10;90.90;;;;;;5010756;28;20029;-67
2022/10/14 11:05:40;;;;;;;6.18;5.57;;;16.10;90.80;;;;;;5009894;28;20140;-71
2022/10/14 11:14:35;;;;;;;4.85;4.35;;;16.20;90.80;;;;;;5009625;28;20044;-68
2022/10/14 11:17:03;;;;;;;7.45;5.88;;;16.30;90.70;;;;;;5008903;28;20034;-66
2022/10/14 11:19:51;;;;;;;5.85;5.15;;;16.30;90.60;;;;;;5009333;28;20037;-68
2022/10/14 11:22:52;;;;;;;6.18;4.75;;;16.30;90.60;;;;;;5008714;28;20113;-68
2022/10/14 11:25:49;;;;;;;7.65;6.85;;;16.40;90.60;;;;;;5005861;28;20034;-68
2022/10/14 11:28:28;;;;;;;5.65;4.80;;;16.30;90.60;;;;;;5006259;28;20480;-69
2022/10/14 11:31:09;;;;;;;7.13;6.28;;;16.30;90.60;;;;;;5009729;28;20108;-69
2022/10/14 11:33:55;;;;;;;6.05;5.43;;;16.30;90.70;;;;;;5009782;28;20034;-67
2022/10/14 11:36:38;;;;;;;6.80;5.97;;;16.20;90.70;;;;;;5005606;28;20440;-68
2022/10/14 11:39:18;;;;;;;7.43;6.53;;;16.20;90.70;;;;;;5008290;28;20030;-68
2022/10/14 11:42:10;;;;;;;4.95;4.22;;;16.20;90.80;;;;;;5009190;28;20021;-67
2022/10/14 11:44:41;;;;;;;6.88;6.18;;;16.30;90.80;;;;;;5006564;28;20496;-67
2022/10/14 11:47:10;;;;;;;6.28;5.65;;;16.30;90.70;;;;;;5007466;28;20068;-69
2022/10/14 11:49:46;;;;;;;6.03;5.28;;;16.20;90.80;;;;;;5009236;28;20029;-67
2022/10/14 11:52:23;;;;;;;6.35;5.35;;;16.20;90.80;;;;;;5007015;28;20014;-68
2022/10/14 11:55:08;;;;;;;5.53;4.70;;;16.20;90.80;;;;;;5009222;28;20030;-71
2022/10/14 11:57:35;;;;;;;3.40;3.10;;;16.20;90.80;;;;;;5007586;28;20033;-68
2022/10/14 12:00:05;;;;;;;4.97;4.47;;;16.20;90.80;;;;;;5007622;28;20041;-68
2022/10/14 12:02:43;;;;;;;7.68;6.47;;;16.20;90.80;;;;;;5008196;28;20144;-69
2022/10/14 12:05:17;;;;;;;7.53;5.82;;;16.20;90.80;;;;;;5009114;28;20372;-69
2022/10/14 12:08:24;;;;;;;4.72;4.20;;;16.10;90.90;;;;;;5006475;28;20140;-68
2022/10/14 12:11:09;;;;;;;6.90;6.20;;;16.10;91.00;;;;;;5005976;28;20399;-67
2022/10/14 12:13:43;;;;;;;5.93;4.72;;;16.10;91.00;;;;;;5007173;28;20022;-69
2022/10/14 12:16:17;;;;;;;6.60;5.10;;;16.10;91.00;;;;;;5008654;28;20029;-68
2022/10/14 12:18:47;;;;;;;4.90;4.40;;;16.10;91.10;;;;;;5003339;28;20036;-67
2022/10/14 12:21:37;;;;;;;5.30;4.78;;;16.10;91.10;;;;;;5005751;28;20022;-69
2022/10/14 12:24:08;;;;;;;6.00;4.78;;;16.10;91.10;;;;;;5007173;28;20026;-69
2022/10/14 12:26:45;;;;;;;4.93;4.43;;;16.10;91.10;;;;;;5005111;28;20020;-69
2022/10/14 12:29:19;;;;;;;3.47;3.17;;;16.10;91.20;;;;;;5003064;28;21612;-70
2022/10/14 12:32:06;;;;;;;3.30;3.00;;;16.10;91.30;;;;;;5005059;28;20096;-68
2022/10/14 12:34:42;;;;;;;3.10;2.80;;;16.20;91.20;;;;;;5007330;28;20053;-68
2022/10/14 12:37:23;;;;;;;5.20;3.42;;;16.20;91.20;;;;;;5007449;28;20030;-69
2022/10/14 12:40:12;;;;;;;3.70;2.78;;;16.30;91.20;;;;;;5007136;28;20117;-68
2022/10/14 12:42:43;;;;;;;3.35;2.90;;;16.30;91.10;;;;;;5007923;28;20073;-69
2022/10/14 12:45:24;;;;;;;3.20;2.90;;;16.30;91.10;;;;;;5006510;28;20018;-70
2022/10/14 12:48:14;;;;;;;3.42;3.10;;;16.30;91.10;;;;;;5002139;28;20032;-68
2022/10/14 12:50:43;;;;;;;3.45;3.15;;;16.30;91.20;;;;;;5004883;28;20500;-68
2022/10/14 12:53:25;;;;;;;3.83;2.80;;;16.30;91.20;;;;;;5007589;28;20030;-69
2022/10/14 12:55:55;;;;;;;2.67;2.47;;;16.40;91.20;;;;;;5007171;28;20109;-69
2022/10/14 12:58:54;;;;;;;2.92;2.60;;;16.50;91.10;;;;;;4997280;28;20041;-69
2022/10/14 13:01:20;;;;;;;2.60;2.05;;;16.40;91.10;;;;;;5004359;28;20100;-69
2022/10/14 13:03:59;;;;;;;2.60;2.40;;;16.50;91.10;;;;;;5004392;28;20023;-69